Time;durP1;ratioP1;P1;durP2;ratioP2;P2;SDS_P1;SDS_P2;PMS_P1;PMS_P2;Temp;Humidity;BMP_temperature;BMP_pressure;BME280_temperature;BME280_humidity;BME280_pressure;Samples;Min_cycle;Max_cycle;Signal;HPM_P1;HPM_P2
2021/06/22 00:00:28;;;;;;;11.98;3.33;;;;;;;;;;6939073;28;20053;-82
2021/06/22 00:03:48;;;;;;;9.52;3.08;;;;;;;;;;6925199;28;20545;-82
2021/06/22 00:07:09;;;;;;;11.00;2.88;;;;;;;;;;6939367;28;20041;-82
2021/06/22 00:10:30;;;;;;;10.75;3.05;;;;;;;;;;6942709;28;20140;-82
2021/06/22 00:13:51;;;;;;;9.60;2.97;;;;;;;;;;6944245;28;20057;-82
2021/06/22 00:17:11;;;;;;;9.68;2.42;;;;;;;;;;6944272;28;20483;-82
2021/06/22 00:20:32;;;;;;;8.68;3.22;;;;;;;;;;6943801;28;20049;-82
2021/06/22 00:23:52;;;;;;;8.57;2.90;;;;;;;;;;6930110;28;20136;-82
2021/06/22 00:27:13;;;;;;;7.72;3.00;;;;;;;;;;6943836;28;20562;-82
2021/06/22 00:30:33;;;;;;;6.47;2.63;;;;;;;;;;6944047;28;20072;-82
2021/06/22 00:33:54;;;;;;;14.00;2.42;;;;;;;;;;6943118;28;20099;-82
2021/06/22 00:37:15;;;;;;;6.20;2.90;;;;;;;;;;6943946;28;20084;-81
2021/06/22 00:40:37;;;;;;;6.32;2.60;;;;;;;;;;6943568;28;20045;-81
2021/06/22 00:44:08;;;;;;;5.28;2.50;;;;;;;;;;6943352;28;20132;-81
2021/06/22 00:47:29;;;;;;;8.55;2.72;;;;;;;;;;6943213;28;20046;-80
2021/06/22 00:50:50;;;;;;;8.15;2.35;;;;;;;;;;6943067;28;20395;-80
2021/06/22 00:54:10;;;;;;;5.93;2.53;;;;;;;;;;6943208;28;20041;-80
2021/06/22 00:57:31;;;;;;;6.43;2.22;;;;;;;;;;6925579;28;20052;-80
2021/06/22 01:00:51;;;;;;;7.72;2.50;;;;;;;;;;6938740;28;20084;-80
2021/06/22 01:04:12;;;;;;;5.95;2.35;;;;;;;;;;6924787;28;20034;-80
2021/06/22 01:07:33;;;;;;;8.10;2.55;;;;;;;;;;6943415;28;20045;-79
2021/06/22 01:10:53;;;;;;;13.90;2.47;;;;;;;;;;6924804;28;20053;-79
2021/06/22 01:14:14;;;;;;;10.45;2.33;;;;;;;;;;6942355;28;20103;-79
2021/06/22 01:17:34;;;;;;;2.97;2.08;;;;;;;;;;6942553;28;20053;-79
2021/06/22 01:20:56;;;;;;;7.53;2.42;;;;;;;;;;6941741;28;20046;-79
2021/06/22 01:24:19;;;;;;;4.82;2.17;;;;;;;;;;6942200;28;20050;-79
2021/06/22 01:27:39;;;;;;;7.68;2.65;;;;;;;;;;6977398;23;20145;-79
2021/06/22 01:31:00;;;;;;;7.45;1.90;;;;;;;;;;6893080;28;20049;-79
2021/06/22 01:34:25;;;;;;;5.28;2.28;;;;;;;;;;6897366;28;20050;-80
2021/06/22 01:37:53;;;;;;;4.85;2.13;;;;;;;;;;6914476;28;20372;-80
2021/06/22 01:41:14;;;;;;;5.45;2.10;;;;;;;;;;6915118;28;20408;-80
2021/06/22 01:44:35;;;;;;;3.83;1.90;;;;;;;;;;6915106;28;20568;-80
2021/06/22 01:47:55;;;;;;;8.07;2.08;;;;;;;;;;6914448;28;20058;-80
2021/06/22 01:51:16;;;;;;;6.70;2.13;;;;;;;;;;6914945;28;20498;-79
2021/06/22 01:54:36;;;;;;;9.27;2.30;;;;;;;;;;6914658;28;20131;-80
2021/06/22 01:57:57;;;;;;;6.35;2.15;;;;;;;;;;6908568;28;20165;-80
2021/06/22 02:01:18;;;;;;;3.78;1.90;;;;;;;;;;6913746;28;20058;-80
2021/06/22 02:04:38;;;;;;;3.80;1.80;;;;;;;;;;6913762;28;20038;-80
2021/06/22 02:07:59;;;;;;;4.15;2.00;;;;;;;;;;6914111;28;20049;-79
2021/06/22 02:11:19;;;;;;;7.75;1.98;;;;;;;;;;6914306;28;20049;-79
2021/06/22 02:14:39;;;;;;;6.72;1.75;;;;;;;;;;6914196;28;20132;-79
2021/06/22 02:18:00;;;;;;;5.90;2.00;;;;;;;;;;6913592;28;20054;-80
2021/06/22 02:21:20;;;;;;;5.45;2.17;;;;;;;;;;6914341;28;20101;-80
2021/06/22 02:24:41;;;;;;;5.03;2.10;;;;;;;;;;6913764;28;20053;-80
2021/06/22 02:28:06;;;;;;;5.82;2.00;;;;;;;;;;6912502;28;20041;-80
2021/06/22 02:31:26;;;;;;;5.07;2.15;;;;;;;;;;6895828;28;20108;-79
2021/06/22 02:34:47;;;;;;;4.13;1.73;;;;;;;;;;6913543;28;20137;-80
2021/06/22 02:38:08;;;;;;;3.95;1.80;;;;;;;;;;6913534;28;20053;-80
2021/06/22 02:41:29;;;;;;;5.05;1.90;;;;;;;;;;6913741;28;20050;-80
2021/06/22 02:44:49;;;;;;;3.13;1.70;;;;;;;;;;6913621;28;20092;-83
2021/06/22 02:48:10;;;;;;;4.13;1.77;;;;;;;;;;6913120;28;20053;-85
2021/06/22 02:51:30;;;;;;;5.70;2.00;;;;;;;;;;6913636;28;20060;-85
2021/06/22 02:54:52;;;;;;;3.78;1.42;;;;;;;;;;6912959;28;20088;-85
2021/06/22 02:58:12;;;;;;;3.55;1.67;;;;;;;;;;6913385;28;20129;-85
2021/06/22 03:01:33;;;;;;;2.10;1.50;;;;;;;;;;6912384;28;20057;-85
2021/06/22 03:04:53;;;;;;;4.55;1.40;;;;;;;;;;6912861;28;20062;-84
2021/06/22 03:08:13;;;;;;;2.20;1.60;;;;;;;;;;6913004;28;20085;-86
2021/06/22 03:11:34;;;;;;;2.55;1.50;;;;;;;;;;6912890;28;20050;-85
2021/06/22 03:14:54;;;;;;;3.20;1.52;;;;;;;;;;6912484;28;20200;-86
2021/06/22 03:18:15;;;;;;;3.25;1.65;;;;;;;;;;6912875;28;20141;-86
2021/06/22 03:21:35;;;;;;;2.58;1.48;;;;;;;;;;6912823;28;20058;-85
2021/06/22 03:24:56;;;;;;;3.13;1.52;;;;;;;;;;6912883;28;20140;-85
2021/06/22 03:28:16;;;;;;;2.75;1.48;;;;;;;;;;6912621;28;20077;-85
2021/06/22 03:31:37;;;;;;;3.88;1.60;;;;;;;;;;6913164;28;20420;-85
2021/06/22 03:34:57;;;;;;;2.08;1.50;;;;;;;;;;6912485;28;20496;-86
2021/06/22 03:38:18;;;;;;;4.40;1.60;;;;;;;;;;6912385;28;20096;-86
2021/06/22 03:41:38;;;;;;;2.67;1.65;;;;;;;;;;6912788;28;20560;-86
2021/06/22 03:44:59;;;;;;;1.67;1.17;;;;;;;;;;6915069;28;20511;-86
2021/06/22 03:48:20;;;;;;;3.03;1.60;;;;;;;;;;6917284;28;20046;-86
2021/06/22 03:51:40;;;;;;;2.10;1.38;;;;;;;;;;6906933;28;20045;-86
2021/06/22 03:55:01;;;;;;;3.83;1.23;;;;;;;;;;6917553;28;20128;-86
2021/06/22 03:58:21;;;;;;;3.25;1.60;;;;;;;;;;6916915;28;20373;-86
2021/06/22 04:01:42;;;;;;;2.42;1.30;;;;;;;;;;6917195;28;20081;-85
2021/06/22 04:05:02;;;;;;;2.35;1.75;;;;;;;;;;6916832;28;20046;-86
2021/06/22 04:08:23;;;;;;;3.83;1.52;;;;;;;;;;6916700;28;20392;-87
2021/06/22 04:11:43;;;;;;;2.05;1.20;;;;;;;;;;6917036;28;20092;-86
2021/06/22 04:15:04;;;;;;;2.20;1.10;;;;;;;;;;6916595;28;20060;-87
2021/06/22 04:18:25;;;;;;;1.73;1.10;;;;;;;;;;6914961;28;20092;-86
2021/06/22 04:21:45;;;;;;;2.15;1.35;;;;;;;;;;6916800;28;20050;-86
2021/06/22 04:25:06;;;;;;;1.88;1.05;;;;;;;;;;6917021;28;20053;-85
2021/06/22 04:28:27;;;;;;;2.22;1.13;;;;;;;;;;6915981;28;20050;-86
2021/06/22 04:31:47;;;;;;;1.98;1.15;;;;;;;;;;6916311;28;20056;-85
2021/06/22 04:35:09;;;;;;;1.40;1.20;;;;;;;;;;6916204;28;20057;-86
2021/06/22 04:38:29;;;;;;;1.48;1.38;;;;;;;;;;6915899;28;20156;-85
2021/06/22 04:41:50;;;;;;;3.92;1.45;;;;;;;;;;6916226;28;20085;-85
2021/06/22 04:45:11;;;;;;;1.95;1.50;;;;;;;;;;6916650;28;20046;-86
2021/06/22 04:48:32;;;;;;;2.63;2.10;;;;;;;;;;6915003;28;20038;-86
2021/06/22 04:51:52;;;;;;;5.50;1.80;;;;;;;;;;6916257;28;20476;-86
2021/06/22 04:55:14;;;;;;;2.00;1.58;;;;;;;;;;6914844;28;20050;-85
2021/06/22 04:58:35;;;;;;;2.67;1.38;;;;;;;;;;6915498;28;20065;-85
2021/06/22 05:01:55;;;;;;;3.33;1.67;;;;;;;;;;6915723;28;20391;-86
2021/06/22 05:05:16;;;;;;;1.90;1.50;;;;;;;;;;6898027;28;20519;-87
2021/06/22 05:08:36;;;;;;;3.60;1.00;;;;;;;;;;6914943;28;20046;-85
2021/06/22 05:11:57;;;;;;;1.67;1.10;;;;;;;;;;6915876;28;20060;-80
2021/06/22 05:15:17;;;;;;;1.50;1.23;;;;;;;;;;6915539;28;20058;-82
2021/06/22 05:18:38;;;;;;;1.17;1.05;;;;;;;;;;6915107;28;20046;-83
2021/06/22 05:21:59;;;;;;;1.35;1.10;;;;;;;;;;6914545;28;20058;-82
2021/06/22 05:25:19;;;;;;;2.53;1.30;;;;;;;;;;6914652;28;20111;-82
2021/06/22 05:28:39;;;;;;;5.03;1.10;;;;;;;;;;6915219;28;20133;-83
2021/06/22 05:32:00;;;;;;;8.65;1.10;;;;;;;;;;6915398;28;20050;-82
2021/06/22 05:35:20;;;;;;;3.38;1.10;;;;;;;;;;6914996;28;20050;-82
2021/06/22 05:38:41;;;;;;;4.05;1.20;;;;;;;;;;6914852;28;20408;-80
2021/06/22 05:42:02;;;;;;;3.70;1.65;;;;;;;;;;6914730;28;20136;-81
2021/06/22 05:45:22;;;;;;;2.10;1.40;;;;;;;;;;6914488;28;20041;-82
2021/06/22 05:48:43;;;;;;;6.95;1.27;;;;;;;;;;6914325;28;20049;-82
2021/06/22 05:52:03;;;;;;;5.25;1.40;;;;;;;;;;6914533;28;20053;-85
2021/06/22 05:55:24;;;;;;;2.80;1.25;;;;;;;;;;6911346;28;20532;-84
2021/06/22 05:58:44;;;;;;;2.08;1.20;;;;;;;;;;6912860;28;20451;-86
2021/06/22 06:02:05;;;;;;;4.75;1.23;;;;;;;;;;6917804;28;20431;-83
2021/06/22 06:05:25;;;;;;;3.25;1.30;;;;;;;;;;6912974;28;20050;-84
2021/06/22 06:08:46;;;;;;;4.50;1.38;;;;;;;;;;6899943;28;20049;-83
2021/06/22 06:12:07;;;;;;;27.88;5.45;;;;;;;;;;6913939;28;20136;-81
2021/06/22 06:15:27;;;;;;;32.05;7.35;;;;;;;;;;6913910;28;20108;-84
2021/06/22 06:18:48;;;;;;;36.95;7.40;;;;;;;;;;6913353;28;20046;-83
2021/06/22 06:22:08;;;;;;;29.20;6.93;;;;;;;;;;6913495;28;20131;-84
2021/06/22 06:25:29;;;;;;;29.90;7.75;;;;;;;;;;6913380;28;20042;-84
2021/06/22 06:28:52;;;;;;;25.52;6.85;;;;;;;;;;6913422;28;20050;-83
2021/06/22 06:32:12;;;;;;;28.05;6.65;;;;;;;;;;6913317;28;20045;-82
2021/06/22 06:35:33;;;;;;;27.33;7.22;;;;;;;;;;6912651;28;20050;-82
2021/06/22 06:38:53;;;;;;;27.55;6.07;;;;;;;;;;6910860;28;20046;-81
2021/06/22 06:42:13;;;;;;;34.05;7.57;;;;;;;;;;6913786;28;20104;-81
2021/06/22 06:45:34;;;;;;;49.85;8.93;;;;;;;;;;6921699;28;20050;-81
2021/06/22 06:48:54;;;;;;;48.60;7.93;;;;;;;;;;6910185;28;20072;-81
2021/06/22 06:52:15;;;;;;;23.70;7.13;;;;;;;;;;6912540;28;20145;-81
2021/06/22 06:55:40;;;;;;;32.63;7.82;;;;;;;;;;6910511;28;20072;-81
2021/06/22 06:59:01;;;;;;;67.28;9.75;;;;;;;;;;6910511;28;20571;-81
2021/06/22 07:02:21;;;;;;;53.80;8.80;;;;;;;;;;6911197;28;20038;-82
2021/06/22 07:05:42;;;;;;;42.88;7.70;;;;;;;;;;6910942;28;20077;-83
2021/06/22 07:09:02;;;;;;;43.10;8.13;;;;;;;;;;6911042;28;20050;-85
2021/06/22 07:12:22;;;;;;;74.22;9.23;;;;;;;;;;6911126;28;20121;-82
2021/06/22 07:15:43;;;;;;;35.58;7.40;;;;;;;;;;6909545;28;20057;-85
2021/06/22 07:19:05;;;;;;;37.47;7.95;;;;;;;;;;6905310;28;20065;-84
2021/06/22 07:22:25;;;;;;;37.80;8.43;;;;;;;;;;6910594;28;20064;-84
2021/06/22 07:25:46;;;;;;;36.88;7.45;;;;;;;;;;6912355;28;20408;-85
2021/06/22 07:29:06;;;;;;;43.45;8.73;;;;;;;;;;6912058;28;20527;-82
2021/06/22 07:32:27;;;;;;;47.83;8.65;;;;;;;;;;6912666;28;20069;-83
2021/06/22 07:35:47;;;;;;;27.63;7.60;;;;;;;;;;6912075;28;20096;-81
2021/06/22 07:39:08;;;;;;;32.42;7.82;;;;;;;;;;6912016;28;20088;-84
2021/06/22 07:42:29;;;;;;;1190.07;103.20;;;;;;;;;;6911447;28;20050;-86
2021/06/22 07:45:49;;;;;;;56.13;8.93;;;;;;;;;;6911425;28;20038;-85
2021/06/22 07:49:10;;;;;;;60.40;9.80;;;;;;;;;;6911862;28;20129;-83
2021/06/22 07:52:30;;;;;;;48.60;8.57;;;;;;;;;;6910615;28;20049;-82
2021/06/22 07:55:50;;;;;;;41.55;8.48;;;;;;;;;;6909026;28;20506;-82
2021/06/22 07:59:11;;;;;;;112.65;12.57;;;;;;;;;;6907753;28;20145;-86
2021/06/22 08:02:31;;;;;;;54.20;9.77;;;;;;;;;;6908673;28;20104;-84
2021/06/22 08:05:53;;;;;;;70.15;10.50;;;;;;;;;;6909266;28;20052;-84
2021/06/22 08:09:13;;;;;;;176.10;26.95;;;;;;;;;;6908616;28;20049;-79
2021/06/22 08:12:34;;;;;;;212.85;34.10;;;;;;;;;;6908780;28;20145;-78
2021/06/22 08:15:56;;;;;;;226.63;32.50;;;;;;;;;;6909614;28;20049;-80
2021/06/22 08:19:16;;;;;;;190.50;22.13;;;;;;;;;;6910940;28;20500;-85
2021/06/22 08:22:37;;;;;;;166.45;20.10;;;;;;;;;;6910272;28;20049;-80
2021/06/22 08:25:57;;;;;;;132.18;16.83;;;;;;;;;;6908923;28;20050;-79
2021/06/22 08:29:18;;;;;;;95.93;13.45;;;;;;;;;;6911284;28;20054;-82
2021/06/22 08:32:38;;;;;;;282.15;42.50;;;;;;;;;;6915180;28;20116;-81
2021/06/22 08:35:59;;;;;;;101.05;17.00;;;;;;;;;;6914156;28;20076;-80
2021/06/22 08:39:19;;;;;;;153.90;19.33;;;;;;;;;;6913280;28;20104;-81
2021/06/22 08:42:41;;;;;;;240.60;48.78;;;;;;;;;;6911834;28;20108;-79
2021/06/22 08:46:05;;;;;;;242.15;42.15;;;;;;;;;;6914869;28;20074;-79
2021/06/22 08:49:28;;;;;;;324.45;39.72;;;;;;;;;;6909818;28;20491;-78
2021/06/22 08:52:49;;;;;;;527.92;68.80;;;;;;;;;;6896156;28;20057;-77
2021/06/22 08:56:09;;;;;;;704.17;91.45;;;;;;;;;;6914684;28;20045;-80
2021/06/22 08:59:30;;;;;;;674.15;93.70;;;;;;;;;;6887129;28;20129;-80
2021/06/22 09:03:06;;;;;;;991.47;186.15;;;;;;;;;;6907520;28;20065;-86
2021/06/22 09:06:38;;;;;;;542.55;97.95;;;;;;;;;;6912971;28;20052;-85
2021/06/22 09:09:58;;;;;;;316.10;48.72;;;;;;;;;;6912283;28;20045;-83
2021/06/22 09:13:21;;;;;;;356.17;43.55;;;;;;;;;;6914316;28;20129;-81
2021/06/22 09:16:42;;;;;;;341.70;37.65;;;;;;;;;;6914153;28;20077;-81
2021/06/22 09:20:03;;;;;;;121.63;15.63;;;;;;;;;;6899218;28;20050;-80
2021/06/22 09:23:37;;;;;;;80.05;11.93;;;;;;;;;;6914202;28;20038;-82
2021/06/22 09:26:59;;;;;;;40.10;8.52;;;;;;;;;;6913948;28;20046;-79
2021/06/22 09:30:39;;;;;;;43.33;8.77;;;;;;;;;;6914447;28;20061;-81
2021/06/22 09:34:00;;;;;;;178.27;19.10;;;;;;;;;;6913602;28;20049;-79
2021/06/22 09:37:20;;;;;;;215.57;17.77;;;;;;;;;;6914381;28;20133;-81
2021/06/22 09:40:41;;;;;;;103.30;12.27;;;;;;;;;;6913657;28;20048;-81
2021/06/22 09:44:07;;;;;;;61.78;11.02;;;;;;;;;;6912633;28;20049;-80
2021/06/22 09:47:30;;;;;;;64.80;9.52;;;;;;;;;;6913692;28;20559;-79
2021/06/22 09:50:51;;;;;;;59.70;8.30;;;;;;;;;;6913545;28;20435;-80
2021/06/22 09:54:17;;;;;;;31.58;6.90;;;;;;;;;;6912930;28;20559;-79
2021/06/22 09:57:43;;;;;;;42.78;7.00;;;;;;;;;;6913491;28;20060;-80
2021/06/22 10:01:04;;;;;;;32.22;7.00;;;;;;;;;;6913077;28;20042;-83
2021/06/22 10:04:27;;;;;;;145.10;14.27;;;;;;;;;;6913334;28;20192;-82
2021/06/22 10:07:57;;;;;;;64.43;8.25;;;;;;;;;;6912557;28;20054;-81
2021/06/22 10:11:46;;;;;;;55.20;8.85;;;;;;;;;;6913262;28;20494;-84
2021/06/22 10:15:08;;;;;;;90.40;10.82;;;;;;;;;;6901163;28;20060;-84
2021/06/22 10:18:28;;;;;;;49.05;7.20;;;;;;;;;;6913237;28;20057;-85
2021/06/22 10:21:49;;;;;;;40.33;7.65;;;;;;;;;;6912746;28;20056;-84
2021/06/22 10:25:11;;;;;;;33.22;7.55;;;;;;;;;;6913274;28;20049;-84
2021/06/22 10:28:35;;;;;;;40.50;7.55;;;;;;;;;;6912699;28;20135;-86
2021/06/22 10:31:56;;;;;;;29.38;7.32;;;;;;;;;;6909675;28;20050;-84
2021/06/22 10:35:17;;;;;;;29.50;6.78;;;;;;;;;;6913353;28;20079;-84
2021/06/22 10:38:39;;;;;;;31.23;7.38;;;;;;;;;;6911669;28;20439;-84
2021/06/22 10:42:07;;;;;;;31.77;6.50;;;;;;;;;;6913294;28;20376;-84
2021/06/22 10:45:28;;;;;;;29.10;7.05;;;;;;;;;;6910936;28;20425;-84
2021/06/22 10:48:52;;;;;;;26.85;6.32;;;;;;;;;;6913508;28;20507;-84
2021/06/22 10:52:12;;;;;;;23.85;6.78;;;;;;;;;;6912011;28;20060;-84
2021/06/22 10:55:44;;;;;;;19.20;6.10;;;;;;;;;;6894086;28;20046;-84
2021/06/22 10:59:14;;;;;;;28.25;6.65;;;;;;;;;;6910334;28;20050;-84
2021/06/22 11:03:00;;;;;;;21.80;6.50;;;;;;;;;;6911783;28;20050;-84
2021/06/22 11:06:22;;;;;;;22.10;6.35;;;;;;;;;;6911978;28;20048;-84
2021/06/22 11:10:10;;;;;;;25.30;7.55;;;;;;;;;;6907399;28;20472;-84
2021/06/22 11:13:32;;;;;;;21.87;5.93;;;;;;;;;;6904736;28;20050;-84
2021/06/22 11:16:54;;;;;;;18.70;6.35;;;;;;;;;;6920760;28;20073;-83
2021/06/22 11:20:15;;;;;;;24.98;6.72;;;;;;;;;;6912457;28;20105;-83
2021/06/22 11:23:55;;;;;;;23.95;6.38;;;;;;;;;;6909609;28;20046;-83
2021/06/22 11:27:16;;;;;;;18.58;6.70;;;;;;;;;;6912150;28;20054;-84
2021/06/22 11:30:47;;;;;;;14.25;5.53;;;;;;;;;;6894767;28;20456;-83
2021/06/22 11:34:09;;;;;;;13.30;4.97;;;;;;;;;;6912476;28;20057;-84
2021/06/22 11:37:29;;;;;;;18.60;5.70;;;;;;;;;;6912502;28;20056;-82
2021/06/22 11:41:10;;;;;;;26.98;6.15;;;;;;;;;;6914732;28;20904;-82
2021/06/22 11:44:30;;;;;;;20.55;6.03;;;;;;;;;;6900314;28;20050;-82
2021/06/22 11:47:52;;;;;;;17.63;4.82;;;;;;;;;;6912093;28;20054;-82
2021/06/22 11:51:12;;;;;;;21.13;5.75;;;;;;;;;;6905582;28;20050;-82
2021/06/22 11:58:09;;;;;;;13.90;5.22;;;;;;;;;;6905079;28;20510;-82
2021/06/22 12:01:30;;;;;;;14.18;4.95;;;;;;;;;;6910491;28;20081;-82
2021/06/22 12:04:50;;;;;;;15.73;5.35;;;;;;;;;;6911620;28;20042;-84
2021/06/22 12:08:14;;;;;;;12.77;4.15;;;;;;;;;;6915487;28;20479;-84
2021/06/22 12:11:35;;;;;;;12.57;4.30;;;;;;;;;;6915309;28;20046;-85
2021/06/22 12:14:56;;;;;;;86.80;7.53;;;;;;;;;;6914778;28;20193;-84
2021/06/22 12:18:17;;;;;;;433.50;37.15;;;;;;;;;;6868413;28;20044;-83
2021/06/22 12:21:39;;;;;;;108.82;10.90;;;;;;;;;;6871264;28;20057;-90
2021/06/22 12:25:00;;;;;;;84.10;9.65;;;;;;;;;;6875987;28;20046;-91
2021/06/22 12:28:22;;;;;;;104.07;10.48;;;;;;;;;;6888781;28;20401;-94
2021/06/22 12:31:55;;;;;;;155.25;14.10;;;;;;;;;;6888831;28;20047;-88
2021/06/22 12:35:16;;;;;;;195.90;15.27;;;;;;;;;;6889312;28;20096;-86
2021/06/22 12:38:39;;;;;;;102.85;10.48;;;;;;;;;;6888341;28;20042;-86
2021/06/22 12:42:07;;;;;;;79.28;8.73;;;;;;;;;;6868428;28;20126;-86
2021/06/22 12:45:28;;;;;;;69.22;7.63;;;;;;;;;;6885791;28;20081;-86
2021/06/22 12:48:56;;;;;;;51.78;5.70;;;;;;;;;;6888451;28;20046;-84
2021/06/22 12:52:16;;;;;;;56.65;6.85;;;;;;;;;;6880454;28;20489;-83
2021/06/22 12:55:43;;;;;;;54.25;7.03;;;;;;;;;;6864302;28;20065;-83
2021/06/22 12:59:10;;;;;;;43.72;5.50;;;;;;;;;;6888931;28;20078;-87
2021/06/22 13:02:32;;;;;;;62.85;8.25;;;;;;;;;;6887048;28;20047;-87
2021/06/22 13:05:54;;;;;;;95.53;8.23;;;;;;;;;;6887137;28;20038;-88
2021/06/22 13:09:16;;;;;;;29.60;5.80;;;;;;;;;;6884991;28;20090;-88
2021/06/22 13:12:37;;;;;;;41.45;5.70;;;;;;;;;;6886392;28;20047;-86
2021/06/22 13:16:11;;;;;;;35.70;4.38;;;;;;;;;;6884727;28;20090;-85
2021/06/22 13:19:40;;;;;;;37.63;4.40;;;;;;;;;;6882276;28;20481;-84
2021/06/22 13:23:03;;;;;;;32.92;4.43;;;;;;;;;;6894440;28;20089;-85
2021/06/22 13:26:25;;;;;;;21.65;3.58;;;;;;;;;;6962392;23;20494;-85
2021/06/22 13:30:01;;;;;;;125.85;8.93;;;;;;;;;;6981070;28;20597;-86
2021/06/22 13:33:27;;;;;;;73.68;6.97;;;;;;;;;;6984311;28;20049;-84
2021/06/22 13:36:48;;;;;;;90.38;7.55;;;;;;;;;;6994140;28;20053;-87
2021/06/22 13:40:09;;;;;;;44.15;5.47;;;;;;;;;;6990898;28;20504;-85
2021/06/22 13:43:43;;;;;;;33.33;4.10;;;;;;;;;;6975482;28;20446;-85
2021/06/22 13:47:04;;;;;;;21.10;3.53;;;;;;;;;;6993009;28;20359;-84
2021/06/22 13:50:25;;;;;;;27.85;4.30;;;;;;;;;;6995232;28;20032;-85
2021/06/22 13:53:47;;;;;;;17.48;3.60;;;;;;;;;;6994002;28;20101;-85
2021/06/22 13:57:08;;;;;;;45.10;4.40;;;;;;;;;;6992680;28;20064;-88
2021/06/22 14:00:28;;;;;;;54.28;5.68;;;;;;;;;;6982203;28;20136;-81
2021/06/22 14:03:49;;;;;;;96.95;7.35;;;;;;;;;;6996779;28;20054;-85
2021/06/22 14:07:10;;;;;;;29.60;3.58;;;;;;;;;;6987972;28;20057;-86
2021/06/22 14:10:32;;;;;;;24.42;3.28;;;;;;;;;;6977510;28;20112;-86
2021/06/22 14:13:56;;;;;;;23.70;2.58;;;;;;;;;;6981329;28;20132;-84
2021/06/22 14:17:16;;;;;;;19.70;2.58;;;;;;;;;;6979872;28;20425;-84
2021/06/22 14:20:40;;;;;;;25.88;2.80;;;;;;;;;;6977046;28;20486;-84
2021/06/22 14:24:00;;;;;;;43.70;5.07;;;;;;;;;;6982013;28;20487;-83
2021/06/22 14:27:21;;;;;;;60.63;5.88;;;;;;;;;;6975958;28;20048;-81
2021/06/22 14:30:41;;;;;;;54.92;5.80;;;;;;;;;;6997102;28;20063;-83
2021/06/22 14:34:02;;;;;;;65.50;6.47;;;;;;;;;;6999902;28;20044;-84
2021/06/22 14:37:22;;;;;;;42.88;3.65;;;;;;;;;;6998646;28;20096;-82
2021/06/22 14:52:11;;;;;;;30.73;3.35;;;;;;;;;;7093920;27;20186;-85
2021/06/22 14:55:35;;;;;;;76.05;5.20;;;;;;;;;;7044691;28;20969;-83
2021/06/22 14:58:55;;;;;;;22.35;2.88;;;;;;;;;;7044317;28;20131;-84
2021/06/22 15:02:16;;;;;;;29.55;2.75;;;;;;;;;;7051405;28;20048;-84
2021/06/22 15:05:36;;;;;;;27.05;3.05;;;;;;;;;;7041932;28;20582;-82
2021/06/22 15:08:57;;;;;;;7.70;2.28;;;;;;;;;;7047480;28;20134;-82
2021/06/22 15:12:17;;;;;;;153.20;6.93;;;;;;;;;;7042134;28;20071;-90
2021/06/22 15:15:38;;;;;;;63.92;4.47;;;;;;;;;;7046007;28;20052;-84
2021/06/22 15:18:58;;;;;;;54.67;4.38;;;;;;;;;;7046117;28;20558;-88
2021/06/22 15:22:19;;;;;;;52.15;4.05;;;;;;;;;;7054633;28;20442;-84
2021/06/22 15:25:42;;;;;;;47.45;5.10;;;;;;;;;;7053920;28;20509;-83
2021/06/22 15:29:22;;;;;;;37.83;4.25;;;;;;;;;;7047585;28;20412;-83
2021/06/22 15:32:46;;;;;;;30.73;4.95;;;;;;;;;;7049093;28;20100;-86
2021/06/22 15:36:06;;;;;;;22.35;2.83;;;;;;;;;;7044806;28;20048;-86
2021/06/22 15:39:27;;;;;;;70.22;6.63;;;;;;;;;;7046045;28;20032;-85
2021/06/22 15:42:49;;;;;;;19.88;3.67;;;;;;;;;;7042240;28;20149;-90
2021/06/22 15:46:10;;;;;;;20.55;3.20;;;;;;;;;;7049892;28;20374;-84
2021/06/22 15:49:31;;;;;;;11.32;2.65;;;;;;;;;;7030285;28;20481;-86
2021/06/22 15:52:51;;;;;;;11.77;2.53;;;;;;;;;;7043404;28;20078;-85
2021/06/22 15:56:13;;;;;;;23.63;2.85;;;;;;;;;;7052115;28;20040;-85
2021/06/22 15:59:34;;;;;;;22.73;3.33;;;;;;;;;;7048895;28;20047;-85
2021/06/22 16:02:54;;;;;;;9.98;2.25;;;;;;;;;;7051926;28;20055;-87
2021/06/22 16:06:15;;;;;;;9.05;2.33;;;;;;;;;;7026810;28;20048;-87
2021/06/22 16:09:35;;;;;;;10.27;2.75;;;;;;;;;;7024762;28;20048;-85
2021/06/22 16:12:56;;;;;;;8.90;2.33;;;;;;;;;;7012958;28;20067;-86
2021/06/22 16:16:16;;;;;;;10.77;2.10;;;;;;;;;;6997603;28;20430;-86
2021/06/22 16:19:37;;;;;;;5.25;2.10;;;;;;;;;;7008823;28;20044;-88
2021/06/22 16:22:57;;;;;;;6.50;2.00;;;;;;;;;;7013108;28;20040;-86
2021/06/22 16:26:18;;;;;;;4.68;1.70;;;;;;;;;;7026028;28;20063;-90
2021/06/22 16:29:39;;;;;;;4.03;1.83;;;;;;;;;;7025666;28;20486;-90
2021/06/22 16:32:59;;;;;;;8.77;2.20;;;;;;;;;;7020436;28;20100;-95
2021/06/22 16:36:20;;;;;;;10.90;1.80;;;;;;;;;;6986632;28;20040;-90
2021/06/22 16:39:41;;;;;;;4.28;1.50;;;;;;;;;;7005910;28;20466;-95
2021/06/22 16:43:06;;;;;;;7.20;1.65;;;;;;;;;;7018161;28;20044;-93
2021/06/22 16:46:27;;;;;;;5.90;1.60;;;;;;;;;;7010824;28;20423;-94
2021/06/22 16:49:49;;;;;;;7.65;1.90;;;;;;;;;;7009512;28;20497;-92
2021/06/22 16:53:09;;;;;;;6.38;1.60;;;;;;;;;;7007915;28;20040;-92
2021/06/22 16:56:30;;;;;;;12.13;1.77;;;;;;;;;;6994487;28;20068;-92
2021/06/22 16:59:50;;;;;;;7.25;2.10;;;;;;;;;;7031411;28;20189;-92
2021/06/22 17:03:11;;;;;;;9.95;1.70;;;;;;;;;;7054216;28;20512;-92
2021/06/22 17:06:31;;;;;;;5.57;1.88;;;;;;;;;;7035301;28;20044;-91
2021/06/22 17:09:51;;;;;;;7.07;1.73;;;;;;;;;;7014480;28;20385;-91
2021/06/22 17:13:12;;;;;;;6.57;1.52;;;;;;;;;;7052366;28;20126;-93
2021/06/22 17:16:33;;;;;;;7.20;1.60;;;;;;;;;;7020355;28;20044;-91
2021/06/22 17:19:53;;;;;;;7.40;1.73;;;;;;;;;;7043280;28;20089;-92
2021/06/22 17:23:14;;;;;;;6.47;1.77;;;;;;;;;;7053773;28;20525;-91
2021/06/22 17:26:34;;;;;;;5.55;1.58;;;;;;;;;;7046608;28;20048;-92
2021/06/22 17:29:54;;;;;;;9.85;1.20;;;;;;;;;;7035757;28;20044;-91
2021/06/22 17:33:15;;;;;;;4.32;1.50;;;;;;;;;;7053035;28;20138;-91
2021/06/22 17:36:36;;;;;;;6.85;1.45;;;;;;;;;;7030258;28;20127;-90
2021/06/22 17:39:57;;;;;;;2.63;1.40;;;;;;;;;;7037924;28;20048;-90
2021/06/22 17:43:18;;;;;;;5.22;1.45;;;;;;;;;;7050929;28;20135;-90
2021/06/22 17:46:39;;;;;;;1.95;1.17;;;;;;;;;;7053597;28;20480;-90
2021/06/22 17:49:59;;;;;;;6.20;1.10;;;;;;;;;;7015669;28;20543;-90
2021/06/22 17:53:19;;;;;;;5.10;1.75;;;;;;;;;;7032273;28;20481;-90
2021/06/22 17:56:40;;;;;;;4.07;1.50;;;;;;;;;;7022712;28;20094;-90
2021/06/22 18:00:03;;;;;;;3.30;1.52;;;;;;;;;;7041342;28;20535;-90
2021/06/22 18:03:23;;;;;;;3.78;1.33;;;;;;;;;;7046841;28;20039;-90
2021/06/22 18:06:44;;;;;;;4.45;1.30;;;;;;;;;;7036380;28;20124;-90
2021/06/22 18:10:09;;;;;;;3.47;1.15;;;;;;;;;;7015178;28;20043;-91
2021/06/22 18:13:30;;;;;;;4.68;1.35;;;;;;;;;;7052601;28;20043;-90
2021/06/22 18:16:50;;;;;;;1.92;1.30;;;;;;;;;;7048742;28;20044;-89
2021/06/22 18:20:12;;;;;;;6.82;1.42;;;;;;;;;;7024613;28;20119;-90
2021/06/22 18:23:32;;;;;;;4.05;1.65;;;;;;;;;;7052361;28;20062;-92
2021/06/22 18:26:53;;;;;;;2.10;1.02;;;;;;;;;;7051829;28;20075;-91
2021/06/22 18:30:15;;;;;;;2.67;1.08;;;;;;;;;;7023580;28;20039;-93
2021/06/22 18:33:37;;;;;;;3.35;1.05;;;;;;;;;;7052609;28;20397;-94
2021/06/22 18:36:58;;;;;;;2.20;1.02;;;;;;;;;;7052404;28;20049;-93
2021/06/22 18:40:19;;;;;;;1.95;1.10;;;;;;;;;;7040883;28;20054;-92
2021/06/22 18:43:39;;;;;;;3.47;1.20;;;;;;;;;;7046526;28;20043;-92
2021/06/22 18:47:00;;;;;;;2.92;1.42;;;;;;;;;;7039214;28;20072;-93
2021/06/22 18:50:22;;;;;;;2.65;1.00;;;;;;;;;;7024346;28;20052;-93
2021/06/22 18:53:42;;;;;;;3.13;1.45;;;;;;;;;;7052356;28;20055;-92
2021/06/22 18:57:03;;;;;;;2.22;1.00;;;;;;;;;;7051533;28;20127;-91
2021/06/22 19:00:23;;;;;;;2.60;1.30;;;;;;;;;;7047416;28;20461;-92
2021/06/22 19:03:44;;;;;;;3.38;1.20;;;;;;;;;;7042995;28;20051;-92
2021/06/22 19:07:04;;;;;;;1.65;1.10;;;;;;;;;;7037071;28;20083;-91
2021/06/22 19:10:25;;;;;;;2.30;1.00;;;;;;;;;;7046099;28;20056;-93
2021/06/22 19:13:45;;;;;;;1.42;1.08;;;;;;;;;;7051789;28;20047;-93
2021/06/22 19:17:09;;;;;;;2.28;0.90;;;;;;;;;;7050900;28;20631;-91
2021/06/22 19:20:29;;;;;;;2.38;1.15;;;;;;;;;;7035477;28;20044;-92
2021/06/22 19:23:50;;;;;;;2.10;1.30;;;;;;;;;;7044320;28;20051;-92
2021/06/22 19:27:10;;;;;;;3.05;1.00;;;;;;;;;;7045350;28;20079;-91
2021/06/22 19:30:31;;;;;;;5.10;0.90;;;;;;;;;;7043166;28;20519;-91
2021/06/22 19:33:51;;;;;;;1.75;1.00;;;;;;;;;;7042675;28;20054;-92
2021/06/22 19:37:13;;;;;;;1.15;1.02;;;;;;;;;;7052423;28;20197;-91
2021/06/22 19:40:36;;;;;;;2.67;1.00;;;;;;;;;;7032244;28;20048;-92
2021/06/22 19:43:56;;;;;;;1.85;0.98;;;;;;;;;;7051991;28;20052;-91
2021/06/22 19:47:17;;;;;;;2.95;0.98;;;;;;;;;;7040456;28;20156;-92
2021/06/22 19:50:38;;;;;;;1.33;0.95;;;;;;;;;;7045302;28;20477;-89
2021/06/22 19:53:59;;;;;;;1.95;0.98;;;;;;;;;;7055608;28;20136;-92
2021/06/22 19:57:19;;;;;;;2.90;1.25;;;;;;;;;;7054377;28;20435;-92
2021/06/22 20:00:40;;;;;;;3.58;1.15;;;;;;;;;;7048117;28;20154;-92
2021/06/22 20:04:01;;;;;;;3.60;1.10;;;;;;;;;;7055753;28;20126;-92
2021/06/22 20:07:22;;;;;;;3.20;1.17;;;;;;;;;;7040117;28;20139;-91
2021/06/22 20:10:42;;;;;;;2.88;1.00;;;;;;;;;;7038971;28;20056;-91